createdAt,value
2019-03-08T00:00:21.445Z,19.38
2019-03-08T00:01:21.466Z,19.39
2019-03-08T00:02:21.415Z,19.38
2019-03-08T00:03:21.331Z,19.38
2019-03-08T00:04:21.396Z,19.36
2019-03-08T00:05:21.257Z,19.36
2019-03-08T00:06:21.386Z,19.36
2019-03-08T00:07:21.459Z,19.35
2019-03-08T00:08:21.326Z,19.35
2019-03-08T00:09:21.333Z,19.35
2019-03-08T00:10:21.480Z,19.34
2019-03-08T00:11:21.255Z,19.34
2019-03-08T00:12:21.310Z,19.33
2019-03-08T00:13:21.436Z,19.33
2019-03-08T00:14:21.289Z,19.33
2019-03-08T00:15:21.343Z,19.33
2019-03-08T00:16:21.468Z,19.33
2019-03-08T00:17:21.292Z,19.32
2019-03-08T00:18:21.353Z,19.32
2019-03-08T00:19:21.429Z,19.31
2019-03-08T00:20:21.352Z,19.3
2019-03-08T00:21:21.312Z,19.31
2019-03-08T00:22:21.738Z,19.3
2019-03-08T00:23:21.293Z,19.3
2019-03-08T00:24:21.313Z,19.3
2019-03-08T00:25:21.440Z,19.3
2019-03-08T00:26:21.316Z,19.3
2019-03-08T00:27:21.472Z,19.29
2019-03-08T00:28:21.451Z,19.28
2019-03-08T00:29:22.182Z,19.27
2019-03-08T00:30:21.342Z,19.27
2019-03-08T00:31:21.402Z,19.27
2019-03-08T00:32:21.279Z,19.27
2019-03-08T00:33:21.287Z,19.27
2019-03-08T00:34:21.444Z,19.26
2019-03-08T00:35:21.244Z,19.26
2019-03-08T00:36:21.326Z,19.26
2019-03-08T00:37:21.417Z,19.25
2019-03-08T00:38:21.272Z,19.25
2019-03-08T00:39:21.310Z,19.26
2019-03-08T00:40:21.456Z,19.26
2019-03-08T00:41:21.250Z,19.25
2019-03-08T00:42:21.430Z,19.24
2019-03-08T00:43:21.464Z,19.24
2019-03-08T00:44:21.244Z,19.24
2019-03-08T00:45:21.326Z,19.24
2019-03-08T00:46:21.452Z,19.23
2019-03-08T00:47:21.249Z,19.23
2019-03-08T00:48:21.376Z,19.22
2019-03-08T00:49:21.409Z,19.22
2019-03-08T00:50:21.285Z,19.22
2019-03-08T00:51:21.349Z,19.21
2019-03-08T00:52:21.442Z,19.21
2019-03-08T00:53:21.312Z,19.21
2019-03-08T00:54:21.337Z,19.21
2019-03-08T00:55:21.441Z,19.21
2019-03-08T00:56:21.248Z,19.21
2019-03-08T00:57:21.434Z,19.2
2019-03-08T00:58:21.449Z,19.19
2019-03-08T00:59:21.290Z,19.2
2019-03-08T01:00:21.302Z,19.19
2019-03-08T01:01:21.438Z,19.19
2019-03-08T01:02:21.223Z,19.19
2019-03-08T01:03:21.421Z,19.19
2019-03-08T01:04:21.415Z,19.18
2019-03-08T01:05:21.272Z,19.17
2019-03-08T01:06:21.344Z,19.17
2019-03-08T01:07:21.749Z,19.17
2019-03-08T01:08:21.305Z,19.17
2019-03-08T01:09:21.355Z,19.17
2019-03-08T01:10:21.471Z,19.16
2019-03-08T01:11:21.703Z,19.16
2019-03-08T01:12:21.529Z,19.15
2019-03-08T01:13:21.461Z,19.15
2019-03-08T01:14:21.317Z,19.15
2019-03-08T01:15:21.380Z,19.15
2019-03-08T01:16:21.280Z,19.14
2019-03-08T01:17:21.281Z,19.14
2019-03-08T01:18:21.359Z,19.15
2019-03-08T01:19:21.487Z,19.14
2019-03-08T01:20:21.255Z,19.15
2019-03-08T01:21:21.339Z,19.14
2019-03-08T01:22:21.550Z,19.14
2019-03-08T01:23:21.288Z,19.13
2019-03-08T01:24:21.333Z,19.13
2019-03-08T01:25:21.759Z,19.12
2019-03-08T01:26:21.225Z,19.12
2019-03-08T01:27:21.335Z,19.12
2019-03-08T01:28:21.500Z,19.1
2019-03-08T01:29:21.294Z,19.11
2019-03-08T01:30:21.376Z,19.11
2019-03-08T01:31:21.430Z,19.1
2019-03-08T01:32:21.297Z,19.1
2019-03-08T01:33:21.500Z,19.1
2019-03-08T01:34:21.445Z,19.09
2019-03-08T01:35:22.638Z,19.1
2019-03-08T01:36:21.337Z,19.09
2019-03-08T01:37:21.504Z,19.09
2019-03-08T01:38:21.344Z,19.09
2019-03-08T01:39:21.417Z,19.09
2019-03-08T01:40:21.544Z,19.09
2019-03-08T01:41:21.347Z,19.09
2019-03-08T01:42:21.395Z,19.08
2019-03-08T01:43:22.911Z,19.07
2019-03-08T01:44:21.306Z,19.06
2019-03-08T01:45:21.329Z,19.07
2019-03-08T01:46:21.623Z,19.07
2019-03-08T01:47:21.337Z,19.06
2019-03-08T01:48:21.312Z,19.05
2019-03-08T01:49:21.474Z,19.05
2019-03-08T01:50:21.256Z,19.05
2019-03-08T01:51:22.755Z,19.04
2019-03-08T01:52:21.461Z,19.04
2019-03-08T01:53:21.241Z,19.04
2019-03-08T01:54:21.382Z,19.04
2019-03-08T01:55:21.496Z,19.03
2019-03-08T01:56:21.546Z,19.03
2019-03-08T01:57:21.296Z,19.03
2019-03-08T01:58:21.472Z,19.03
2019-03-08T01:59:22.710Z,19.03
2019-03-08T02:00:21.319Z,19.03
2019-03-08T02:01:21.443Z,19.03
2019-03-08T02:02:21.296Z,19.03
2019-03-08T02:03:21.339Z,19.03
2019-03-08T02:04:21.445Z,19.02
2019-03-08T02:05:21.283Z,19.01
2019-03-08T02:06:21.313Z,19.02
2019-03-08T02:07:22.770Z,19.01
2019-03-08T02:08:21.262Z,19.01
2019-03-08T02:09:21.423Z,19.01
2019-03-08T02:10:21.456Z,19
2019-03-08T02:11:21.554Z,19
2019-03-08T02:12:21.315Z,18.99
2019-03-08T02:13:21.476Z,18.99
2019-03-08T02:14:21.283Z,18.99
2019-03-08T02:15:22.955Z,18.99
2019-03-08T02:16:21.515Z,18.99
2019-03-08T02:17:21.265Z,18.98
2019-03-08T02:18:21.319Z,18.99
2019-03-08T02:19:21.413Z,18.98
2019-03-08T02:20:21.242Z,18.98
2019-03-08T02:21:21.412Z,18.98
2019-03-08T02:22:23.816Z,18.97
2019-03-08T02:23:22.576Z,18.97
2019-03-08T02:24:21.303Z,18.97
2019-03-08T02:25:21.408Z,18.97
2019-03-08T02:26:21.337Z,18.97
2019-03-08T02:27:21.335Z,18.96
2019-03-08T02:28:21.406Z,18.96
2019-03-08T02:29:21.299Z,18.96
2019-03-08T02:30:21.445Z,18.95
2019-03-08T02:31:23.145Z,18.96
2019-03-08T02:32:21.269Z,18.95
2019-03-08T02:33:21.364Z,18.95
2019-03-08T02:34:21.505Z,18.95
2019-03-08T02:35:21.284Z,18.95
2019-03-08T02:36:21.417Z,18.94
2019-03-08T02:37:21.608Z,18.95
2019-03-08T02:38:21.433Z,18.94
2019-03-08T02:39:23.919Z,18.94
2019-03-08T02:40:21.465Z,18.94
2019-03-08T02:41:21.255Z,18.93
2019-03-08T02:42:21.282Z,18.93
2019-03-08T02:43:21.475Z,18.93
2019-03-08T02:44:21.261Z,18.92
2019-03-08T02:45:21.372Z,18.92
2019-03-08T02:46:21.532Z,18.92
2019-03-08T02:47:22.542Z,18.92
2019-03-08T02:48:21.299Z,18.92
2019-03-08T02:49:21.479Z,18.9
2019-03-08T02:50:21.318Z,18.91
2019-03-08T02:51:21.321Z,18.91
2019-03-08T02:52:21.363Z,18.91
2019-03-08T02:53:21.265Z,18.91
2019-03-08T02:54:21.300Z,18.9
2019-03-08T02:55:22.702Z,18.9
2019-03-08T02:56:21.226Z,18.9
2019-03-08T02:57:21.395Z,18.9
2019-03-08T02:58:21.402Z,18.9
2019-03-08T02:59:21.248Z,18.9
2019-03-08T03:00:21.423Z,18.9
2019-03-08T03:01:21.422Z,18.89
2019-03-08T03:02:21.276Z,18.89
2019-03-08T03:03:22.862Z,18.88
2019-03-08T03:04:21.649Z,18.89
2019-03-08T03:05:21.198Z,18.88
2019-03-08T03:06:21.292Z,18.89
2019-03-08T03:07:21.156Z,18.88
2019-03-08T03:08:21.248Z,18.89
2019-03-08T03:09:21.482Z,18.87
2019-03-08T03:10:21.364Z,18.87
2019-03-08T03:11:21.742Z,18.87
2019-03-08T03:12:21.390Z,18.87
2019-03-08T03:13:21.181Z,18.86
2019-03-08T03:14:21.287Z,18.86
2019-03-08T03:15:21.315Z,18.86
2019-03-08T03:16:21.130Z,18.86
2019-03-08T03:17:21.310Z,18.86
2019-03-08T03:18:21.477Z,18.85
2019-03-08T03:19:21.848Z,18.86
2019-03-08T03:20:21.307Z,18.85
2019-03-08T03:21:21.431Z,18.85
2019-03-08T03:22:21.256Z,18.84
2019-03-08T03:23:21.316Z,18.84
2019-03-08T03:24:21.301Z,18.84
2019-03-08T03:25:21.203Z,18.84
2019-03-08T03:26:21.265Z,18.84
2019-03-08T03:27:22.725Z,18.84
2019-03-08T03:28:21.230Z,18.84
2019-03-08T03:29:21.284Z,18.84
2019-03-08T03:30:21.439Z,18.84
2019-03-08T03:31:21.257Z,18.83
2019-03-08T03:32:21.288Z,18.83
2019-03-08T03:33:21.403Z,18.83
2019-03-08T03:34:21.132Z,18.82
2019-03-08T03:35:22.578Z,18.83
2019-03-08T03:36:21.295Z,18.82
2019-03-08T03:37:21.217Z,18.81
2019-03-08T03:38:21.311Z,18.81
2019-03-08T03:39:21.343Z,18.81
2019-03-08T03:40:21.166Z,18.8
2019-03-08T03:41:21.266Z,18.82
2019-03-08T03:42:21.401Z,18.8
2019-03-08T03:43:22.334Z,18.8
2019-03-08T03:44:21.259Z,18.79
2019-03-08T03:45:21.323Z,18.79
2019-03-08T03:46:21.139Z,18.79
2019-03-08T03:47:21.537Z,18.78
2019-03-08T03:48:21.315Z,18.78
2019-03-08T03:49:21.172Z,18.78
2019-03-08T03:50:21.340Z,18.78
2019-03-08T03:51:22.097Z,18.79
2019-03-08T03:52:21.292Z,18.78
2019-03-08T03:53:21.316Z,18.78
2019-03-08T03:54:21.346Z,18.78
2019-03-08T03:55:21.152Z,18.78
2019-03-08T03:56:21.274Z,18.78
2019-03-08T03:57:21.463Z,18.78
2019-03-08T03:58:21.170Z,18.78
2019-03-08T03:59:21.597Z,18.78
2019-03-08T04:00:21.381Z,18.78
2019-03-08T04:01:21.258Z,18.77
2019-03-08T04:02:22.476Z,18.77
2019-03-08T04:03:21.335Z,18.76
2019-03-08T04:04:21.431Z,18.76
2019-03-08T04:05:21.290Z,18.76
2019-03-08T04:06:21.390Z,18.76
2019-03-08T04:07:21.983Z,18.76
2019-03-08T04:08:21.302Z,18.75
2019-03-08T04:09:21.149Z,18.76
2019-03-08T04:10:21.201Z,18.76
2019-03-08T04:11:21.308Z,18.75
2019-03-08T04:12:21.419Z,18.75
2019-03-08T04:13:21.196Z,18.74
2019-03-08T04:14:21.503Z,18.74
2019-03-08T04:15:21.350Z,18.74
2019-03-08T04:16:21.334Z,18.74
2019-03-08T04:17:21.358Z,18.72
2019-03-08T04:18:21.228Z,18.72
2019-03-08T04:19:21.225Z,18.72
2019-03-08T04:20:21.370Z,18.72
2019-03-08T04:21:21.254Z,18.72
2019-03-08T04:22:21.243Z,18.72
2019-03-08T04:23:21.617Z,18.72
2019-03-08T04:24:21.197Z,18.72
2019-03-08T04:25:21.216Z,18.72
2019-03-08T04:26:21.347Z,18.72
2019-03-08T04:27:21.192Z,18.71
2019-03-08T04:28:21.369Z,18.72
2019-03-08T04:29:21.393Z,18.72
2019-03-08T04:30:21.283Z,18.72
2019-03-08T04:31:21.706Z,18.72
2019-03-08T04:32:21.305Z,18.71
2019-03-08T04:33:21.200Z,18.71
2019-03-08T04:34:21.177Z,18.71
2019-03-08T04:35:21.682Z,18.71
2019-03-08T04:36:21.171Z,18.7
2019-03-08T04:37:21.207Z,18.71
2019-03-08T04:38:21.350Z,18.7
2019-03-08T04:39:22.525Z,18.7
2019-03-08T04:40:21.329Z,18.7
2019-03-08T04:41:21.293Z,18.7
2019-03-08T04:42:21.117Z,18.71
2019-03-08T04:43:21.169Z,18.71
2019-03-08T04:44:21.365Z,18.72
2019-03-08T04:45:21.234Z,18.72
2019-03-08T04:46:21.197Z,18.72
2019-03-08T04:47:22.685Z,18.74
2019-03-08T04:48:21.406Z,18.74
2019-03-08T04:49:21.212Z,18.74
2019-03-08T04:50:21.381Z,18.75
2019-03-08T04:51:21.394Z,18.76
2019-03-08T04:52:21.294Z,18.77
2019-03-08T04:53:21.361Z,18.78
2019-03-08T04:54:21.434Z,18.8
2019-03-08T04:55:22.563Z,18.79
2019-03-08T04:56:21.324Z,18.8
2019-03-08T04:57:21.617Z,18.81
2019-03-08T04:58:21.239Z,18.82
2019-03-08T04:59:21.337Z,18.84
2019-03-08T05:00:21.359Z,18.85
2019-03-08T05:01:21.155Z,18.86
2019-03-08T05:02:21.297Z,18.88
2019-03-08T05:03:22.594Z,18.89
2019-03-08T05:04:21.261Z,18.91
2019-03-08T05:05:21.565Z,18.93
2019-03-08T05:06:21.442Z,18.95
2019-03-08T05:07:21.168Z,18.97
2019-03-08T05:08:21.253Z,18.98
2019-03-08T05:09:21.334Z,19.01
2019-03-08T05:10:21.289Z,19.03
2019-03-08T05:11:22.447Z,19.04
2019-03-08T05:12:21.323Z,19.06
2019-03-08T05:13:21.129Z,19.09
2019-03-08T05:14:21.214Z,19.1
2019-03-08T05:15:21.413Z,19.12
2019-03-08T05:16:21.136Z,19.13
2019-03-08T05:17:21.239Z,19.15
2019-03-08T05:18:21.326Z,19.16
2019-03-08T05:19:22.608Z,19.18
2019-03-08T05:20:21.256Z,19.2
2019-03-08T05:21:21.276Z,19.21
2019-03-08T05:22:23.307Z,19.22
2019-03-08T05:23:21.247Z,19.24
2019-03-08T05:24:21.399Z,19.25
2019-03-08T05:25:21.159Z,19.27
2019-03-08T05:26:21.262Z,19.27
2019-03-08T05:27:22.561Z,19.29
2019-03-08T05:28:21.159Z,19.31
2019-03-08T05:29:24.574Z,19.33
2019-03-08T05:30:21.268Z,19.33
2019-03-08T05:31:21.100Z,19.34
2019-03-08T05:32:21.264Z,19.35
2019-03-08T05:33:21.307Z,19.38
2019-03-08T05:34:21.090Z,19.38
2019-03-08T05:35:22.823Z,19.4
2019-03-08T05:36:21.274Z,19.41
2019-03-08T05:37:21.063Z,19.43
2019-03-08T05:38:21.195Z,19.44
2019-03-08T05:39:21.421Z,19.45
2019-03-08T05:40:21.146Z,19.45
2019-03-08T05:41:21.223Z,19.46
2019-03-08T05:42:21.299Z,19.47
2019-03-08T05:43:22.576Z,19.49
2019-03-08T05:44:21.251Z,19.51
2019-03-08T05:45:21.277Z,19.51
2019-03-08T05:46:21.116Z,19.53
2019-03-08T05:47:21.216Z,19.54
2019-03-08T05:48:21.312Z,19.55
2019-03-08T05:49:21.129Z,19.56
2019-03-08T05:50:21.233Z,19.57
2019-03-08T05:51:22.735Z,19.58
2019-03-08T05:52:21.088Z,19.6
2019-03-08T05:53:21.222Z,19.6
2019-03-08T05:54:21.298Z,19.62
2019-03-08T05:55:21.124Z,19.63
2019-03-08T05:56:21.238Z,19.63
2019-03-08T05:57:21.275Z,19.66
2019-03-08T05:58:21.048Z,19.65
2019-03-08T05:59:21.209Z,19.67
2019-03-08T06:00:21.305Z,19.68
2019-03-08T06:01:21.111Z,19.69
2019-03-08T06:02:21.250Z,19.69
2019-03-08T06:03:21.406Z,19.69
2019-03-08T06:04:21.147Z,19.72
2019-03-08T06:05:21.260Z,19.72
2019-03-08T06:06:21.574Z,19.74
2019-03-08T06:07:21.238Z,19.75
2019-03-08T06:08:21.253Z,19.75
2019-03-08T06:09:21.429Z,19.75
2019-03-08T06:10:21.130Z,19.77
2019-03-08T06:11:21.261Z,19.77
2019-03-08T06:12:21.434Z,19.78
2019-03-08T06:13:21.227Z,19.79
2019-03-08T06:14:22.287Z,19.79
2019-03-08T06:15:21.404Z,19.81
2019-03-08T06:16:21.338Z,19.77
2019-03-08T06:17:21.240Z,19.61
2019-03-08T06:18:21.428Z,19.48
2019-03-08T06:19:21.146Z,19.36
2019-03-08T06:20:21.295Z,19.29
2019-03-08T06:21:21.405Z,19.21
2019-03-08T06:22:22.242Z,19.15
2019-03-08T06:23:21.242Z,19.05
2019-03-08T06:24:21.392Z,18.98
2019-03-08T06:25:21.119Z,18.92
2019-03-08T06:26:21.515Z,18.9
2019-03-08T06:27:21.307Z,18.87
2019-03-08T06:28:21.077Z,18.84
2019-03-08T06:29:21.297Z,18.78
2019-03-08T06:30:23.021Z,18.75
2019-03-08T06:31:21.250Z,18.7
2019-03-08T06:32:21.216Z,18.65
2019-03-08T06:33:21.404Z,18.6
2019-03-08T06:34:21.143Z,18.57
2019-03-08T06:35:21.311Z,18.62
2019-03-08T06:36:21.384Z,18.72
2019-03-08T06:37:21.258Z,18.82
2019-03-08T06:38:21.308Z,18.89
2019-03-08T06:39:21.205Z,18.95
2019-03-08T06:40:21.312Z,19.01
2019-03-08T06:41:21.387Z,19.05
2019-03-08T06:42:21.259Z,19.11
2019-03-08T06:43:21.542Z,19.15
2019-03-08T06:44:21.639Z,19.19
2019-03-08T06:45:21.344Z,19.23
2019-03-08T06:46:21.376Z,19.26
2019-03-08T06:47:21.431Z,19.28
2019-03-08T06:48:21.289Z,19.3
2019-03-08T06:49:21.309Z,19.33
2019-03-08T06:50:21.403Z,19.34
2019-03-08T06:51:21.460Z,19.38
2019-03-08T06:52:21.255Z,19.38
2019-03-08T06:53:21.895Z,19.39
2019-03-08T06:54:21.296Z,19.41
2019-03-08T06:55:21.554Z,19.41
2019-03-08T06:56:21.292Z,19.45
2019-03-08T06:57:21.347Z,19.45
2019-03-08T06:58:21.382Z,19.46
2019-03-08T06:59:21.291Z,19.46
2019-03-08T07:00:21.316Z,19.47
2019-03-08T07:01:22.631Z,19.48
2019-03-08T07:02:21.275Z,19.5
2019-03-08T07:03:21.356Z,19.5
2019-03-08T07:04:21.180Z,19.5
2019-03-08T07:05:21.177Z,19.51
2019-03-08T07:06:21.622Z,19.53
2019-03-08T07:07:21.353Z,19.52
2019-03-08T07:08:21.403Z,19.53
2019-03-08T07:09:22.685Z,19.55
2019-03-08T07:10:21.230Z,19.54
2019-03-08T07:11:21.344Z,19.54
2019-03-08T07:12:21.473Z,19.54
2019-03-08T07:13:21.298Z,19.55
2019-03-08T07:14:21.295Z,19.55
2019-03-08T07:15:21.156Z,19.54
2019-03-08T07:16:21.254Z,19.56
2019-03-08T07:17:22.741Z,19.55
2019-03-08T07:18:21.166Z,19.57
2019-03-08T07:19:21.352Z,19.57
2019-03-08T07:20:21.315Z,19.56
2019-03-08T07:21:21.233Z,19.56
2019-03-08T07:22:21.295Z,19.56
2019-03-08T07:23:28.493Z,19.56
2019-03-08T07:24:21.192Z,19.55
2019-03-08T07:25:21.471Z,19.55
2019-03-08T07:26:21.336Z,19.56
2019-03-08T07:27:21.279Z,19.56
2019-03-08T07:28:21.350Z,19.55
2019-03-08T07:29:21.368Z,19.54
2019-03-08T07:30:21.322Z,19.54
2019-03-08T07:31:21.355Z,19.53
2019-03-08T07:32:21.190Z,19.53
2019-03-08T07:33:21.473Z,19.53
2019-03-08T07:34:21.350Z,19.53
2019-03-08T07:35:21.204Z,19.53
2019-03-08T07:36:21.299Z,19.53
2019-03-08T07:37:21.425Z,19.52
2019-03-08T07:38:21.372Z,19.52
2019-03-08T07:39:21.339Z,19.52
2019-03-08T07:40:21.405Z,19.51
2019-03-08T07:41:21.185Z,19.51
2019-03-08T07:42:21.303Z,19.51
2019-03-08T07:43:21.231Z,19.5
2019-03-08T07:44:21.274Z,19.51
2019-03-08T07:45:21.300Z,19.51
2019-03-08T07:46:21.190Z,19.51
2019-03-08T07:47:21.213Z,19.51
2019-03-08T07:48:21.332Z,19.51
2019-03-08T07:49:23.999Z,19.51
2019-03-08T07:50:21.249Z,19.51
2019-03-08T07:51:21.201Z,19.5
2019-03-08T07:52:21.292Z,19.5
2019-03-08T07:53:21.256Z,19.5
2019-03-08T07:54:21.425Z,19.5
2019-03-08T07:55:21.174Z,19.49
2019-03-08T07:56:21.309Z,19.5
2019-03-08T07:57:22.006Z,19.49
2019-03-08T07:58:21.227Z,19.49
2019-03-08T07:59:21.308Z,19.48
2019-03-08T08:00:21.163Z,19.48
2019-03-08T08:01:21.256Z,19.48
2019-03-08T08:02:21.322Z,19.48
2019-03-08T08:03:21.188Z,19.47
2019-03-08T08:04:21.343Z,19.47
2019-03-08T08:05:22.576Z,19.47
2019-03-08T08:06:21.230Z,19.47
2019-03-08T08:07:21.234Z,19.47
2019-03-08T08:08:21.373Z,19.46
2019-03-08T08:09:21.208Z,19.46
2019-03-08T08:10:21.320Z,19.45
2019-03-08T08:11:21.697Z,19.46
2019-03-08T08:12:21.246Z,19.46
2019-03-08T08:13:22.737Z,19.46
2019-03-08T08:14:21.158Z,19.46
2019-03-08T08:15:21.285Z,19.45
2019-03-08T08:16:21.380Z,19.45
2019-03-08T08:17:21.146Z,19.44
2019-03-08T08:18:21.315Z,19.45
2019-03-08T08:19:21.480Z,19.44
2019-03-08T08:20:21.384Z,19.41
2019-03-08T08:21:28.537Z,19.43
2019-03-08T08:22:21.186Z,19.45
2019-03-08T08:23:21.342Z,19.45
2019-03-08T08:24:21.067Z,19.45
2019-03-08T08:25:21.162Z,19.46
2019-03-08T08:26:21.321Z,19.46
2019-03-08T08:27:21.108Z,19.45
2019-03-08T08:28:21.177Z,19.46
2019-03-08T08:29:22.437Z,19.46
2019-03-08T08:30:21.186Z,19.45
2019-03-08T08:31:21.209Z,19.48
2019-03-08T08:32:21.344Z,19.5
2019-03-08T08:33:21.139Z,19.51
2019-03-08T08:34:22.305Z,19.51
2019-03-08T08:35:21.291Z,19.51
2019-03-08T08:36:21.434Z,19.51
2019-03-08T08:37:22.494Z,19.53
2019-03-08T08:38:21.347Z,19.53
2019-03-08T08:39:21.112Z,19.55
2019-03-08T08:40:21.093Z,19.57
2019-03-08T08:41:21.320Z,19.58
2019-03-08T08:42:21.099Z,19.6
2019-03-08T08:43:21.101Z,19.61
2019-03-08T08:44:21.242Z,19.62
2019-03-08T08:45:22.346Z,19.66
2019-03-08T08:46:21.162Z,19.67
2019-03-08T08:47:21.245Z,19.68
2019-03-08T08:48:21.145Z,19.7
2019-03-08T08:49:21.138Z,19.71
2019-03-08T08:50:21.227Z,19.74
2019-03-08T08:51:21.064Z,19.75
2019-03-08T08:52:21.128Z,19.76
2019-03-08T08:53:22.404Z,19.78
2019-03-08T08:54:21.024Z,19.79
2019-03-08T08:55:21.069Z,19.81
2019-03-08T08:56:21.212Z,19.81
2019-03-08T08:57:21.388Z,19.83
2019-03-08T08:58:21.197Z,19.85
2019-03-08T08:59:21.199Z,19.87
2019-03-08T09:00:21.209Z,19.88
2019-03-08T09:01:22.057Z,19.9
2019-03-08T09:02:21.246Z,19.91
2019-03-08T09:03:21.250Z,19.92
2019-03-08T09:04:21.207Z,19.94
2019-03-08T09:05:21.226Z,19.95
2019-03-08T09:06:21.245Z,19.96
2019-03-08T09:07:21.282Z,19.99
2019-03-08T09:08:21.284Z,20
2019-03-08T09:09:22.623Z,20
2019-03-08T09:10:21.075Z,20
2019-03-08T09:11:21.192Z,20.03
2019-03-08T09:12:21.102Z,20.04
2019-03-08T09:13:21.244Z,20.05
2019-03-08T09:14:21.259Z,20.07
2019-03-08T09:15:21.033Z,20.08
2019-03-08T09:16:21.079Z,20.1
2019-03-08T09:17:22.476Z,20.11
2019-03-08T09:18:21.271Z,20.12
2019-03-08T09:19:21.030Z,20.14
2019-03-08T09:20:21.543Z,20.13
2019-03-08T09:21:21.265Z,20.16
2019-03-08T09:22:21.082Z,20.17
2019-03-08T09:23:21.202Z,20.18
2019-03-08T09:24:21.342Z,20.18
2019-03-08T09:25:22.534Z,20.2
2019-03-08T09:26:21.302Z,20.21
2019-03-08T09:27:21.111Z,20.22
2019-03-08T09:28:21.248Z,20.24
2019-03-08T09:29:21.181Z,20.25
2019-03-08T09:30:21.039Z,20.24
2019-03-08T09:31:21.087Z,20.26
2019-03-08T09:32:21.236Z,20.25
2019-03-08T09:33:22.385Z,20.28
2019-03-08T09:34:21.118Z,20.28
2019-03-08T09:35:21.251Z,20.3
2019-03-08T09:36:21.130Z,20.32
2019-03-08T09:37:21.079Z,20.32
2019-03-08T09:38:21.254Z,20.34
2019-03-08T09:39:21.384Z,20.32
2019-03-08T09:40:21.173Z,20.32
2019-03-08T09:41:22.444Z,20.34
2019-03-08T09:42:21.338Z,20.33
2019-03-08T09:43:21.069Z,20.33
2019-03-08T09:44:21.195Z,20.32
2019-03-08T09:45:21.335Z,20.32
2019-03-08T09:46:21.053Z,20.33
2019-03-08T09:47:21.184Z,20.33
2019-03-08T09:48:21.003Z,20.34
2019-03-08T09:49:22.398Z,20.34
2019-03-08T09:50:21.126Z,20.33
2019-03-08T09:51:21.325Z,20.34
2019-03-08T09:52:21.134Z,20.34
2019-03-08T09:53:21.163Z,20.34
2019-03-08T09:54:21.302Z,20.34
2019-03-08T09:55:21.191Z,20.35
2019-03-08T09:56:21.198Z,20.35
2019-03-08T09:57:22.252Z,20.33
2019-03-08T09:58:21.140Z,20.34
2019-03-08T09:59:21.248Z,20.34
2019-03-08T10:00:21.248Z,20.35
2019-03-08T10:01:21.154Z,20.35
2019-03-08T10:02:21.198Z,20.35
2019-03-08T10:03:21.241Z,20.35
2019-03-08T10:04:21.176Z,20.36
2019-03-08T10:05:22.206Z,20.35
2019-03-08T10:06:20.996Z,20.35
2019-03-08T10:07:21.226Z,20.35
2019-03-08T10:08:21.259Z,20.35
2019-03-08T10:09:21.044Z,20.35
2019-03-08T10:10:21.446Z,20.38
2019-03-08T10:11:21.222Z,20.37
2019-03-08T10:12:21.206Z,20.37
2019-03-08T10:13:22.469Z,20.38
2019-03-08T10:14:21.252Z,20.38
2019-03-08T10:15:21.090Z,20.38
2019-03-08T10:16:21.095Z,20.39
2019-03-08T10:17:21.237Z,20.38
2019-03-08T10:18:21.070Z,20.39
2019-03-08T10:19:21.129Z,20.4
2019-03-08T10:20:21.178Z,20.4
2019-03-08T10:21:22.341Z,20.41
2019-03-08T10:22:21.211Z,20.41
2019-03-08T10:23:21.281Z,20.41
2019-03-08T10:24:21.154Z,20.41
2019-03-08T10:25:21.130Z,20.41
2019-03-08T10:26:21.221Z,20.42
2019-03-08T10:27:21.259Z,20.42
2019-03-08T10:28:21.129Z,20.44
2019-03-08T10:29:22.582Z,20.44
2019-03-08T10:30:21.014Z,20.45
2019-03-08T10:31:21.032Z,20.46
2019-03-08T10:32:21.235Z,20.45
2019-03-08T10:33:21.352Z,20.46
2019-03-08T10:34:21.064Z,20.47
2019-03-08T10:35:24.575Z,20.48
2019-03-08T10:36:21.235Z,20.47
2019-03-08T10:37:22.437Z,20.5
2019-03-08T10:38:23.289Z,20.5
2019-03-08T10:39:21.007Z,20.51
2019-03-08T10:40:21.103Z,20.51
2019-03-08T10:41:21.214Z,20.5
2019-03-08T10:42:21.097Z,20.51
2019-03-08T10:43:21.096Z,20.52
2019-03-08T10:44:21.217Z,20.52
2019-03-08T10:45:22.289Z,20.52
2019-03-08T10:46:21.102Z,20.52
2019-03-08T10:47:21.176Z,20.53
2019-03-08T10:48:21.312Z,20.53
2019-03-08T10:49:21.242Z,20.53
2019-03-08T10:50:21.301Z,20.53
2019-03-08T10:51:21.058Z,20.53
2019-03-08T10:52:21.228Z,20.53
2019-03-08T10:53:22.451Z,20.53
2019-03-08T10:54:21.127Z,20.53
2019-03-08T10:55:21.107Z,20.53
2019-03-08T10:56:21.170Z,20.53
2019-03-08T10:57:21.106Z,20.53
2019-03-08T10:58:21.111Z,20.53
2019-03-08T10:59:21.197Z,20.53
2019-03-08T11:00:21.045Z,20.53
2019-03-08T11:01:22.406Z,20.53
2019-03-08T11:02:21.290Z,20.53
2019-03-08T11:03:21.086Z,20.53
2019-03-08T11:04:21.097Z,20.53
2019-03-08T11:05:21.356Z,20.53
2019-03-08T11:06:21.124Z,20.53
2019-03-08T11:07:21.117Z,20.53
2019-03-08T11:08:30.425Z,20.53
2019-03-08T11:09:22.360Z,20.53
2019-03-08T11:10:21.127Z,20.53
2019-03-08T11:11:21.493Z,20.53
2019-03-08T11:12:21.119Z,20.53
2019-03-08T11:13:21.042Z,20.52
2019-03-08T11:14:21.225Z,20.52
2019-03-08T11:15:25.272Z,20.53
2019-03-08T11:16:21.057Z,20.53
2019-03-08T11:17:22.622Z,20.53
2019-03-08T11:18:21.122Z,20.53
2019-03-08T11:19:21.174Z,20.53
2019-03-08T11:20:21.243Z,20.53
2019-03-08T11:21:21.070Z,20.52
2019-03-08T11:22:21.245Z,20.52
2019-03-08T11:23:21.261Z,20.52
2019-03-08T11:24:21.126Z,20.52
2019-03-08T11:25:22.166Z,20.51
2019-03-08T11:26:21.266Z,20.52
2019-03-08T11:27:21.079Z,20.51
2019-03-08T11:28:21.677Z,20.53
2019-03-08T11:29:21.188Z,20.47
2019-03-08T11:30:22.105Z,20.43
2019-03-08T11:31:21.079Z,20.47
2019-03-08T11:32:23.741Z,20.5
2019-03-08T11:33:21.882Z,20.52
2019-03-08T11:34:21.182Z,20.53
2019-03-08T11:35:21.112Z,20.57
2019-03-08T11:36:21.313Z,20.57
2019-03-08T11:37:21.083Z,20.57
2019-03-08T11:38:22.991Z,20.57
2019-03-08T11:39:21.209Z,20.59
2019-03-08T11:40:21.068Z,20.58
2019-03-08T11:41:21.561Z,20.59
2019-03-08T11:42:21.299Z,20.59
2019-03-08T11:43:21.161Z,20.59
2019-03-08T11:44:21.188Z,20.59
2019-03-08T11:45:21.200Z,20.6
2019-03-08T11:46:21.101Z,20.59
2019-03-08T11:47:21.204Z,20.61
2019-03-08T11:48:21.209Z,20.62
2019-03-08T11:49:21.216Z,20.63
2019-03-08T11:50:21.160Z,20.61
2019-03-08T11:51:21.220Z,20.6
2019-03-08T11:52:21.048Z,20.61
2019-03-08T11:53:21.124Z,20.6
2019-03-08T11:54:21.312Z,20.62
2019-03-08T11:55:21.025Z,20.61
2019-03-08T11:56:21.127Z,20.61
2019-03-08T11:57:21.183Z,20.61
2019-03-08T11:58:21.513Z,20.62
2019-03-08T11:59:21.133Z,20.61
2019-03-08T12:00:21.119Z,20.63
2019-03-08T12:01:21.233Z,20.63
2019-03-08T12:02:21.113Z,20.64
2019-03-08T12:03:21.120Z,20.65
2019-03-08T12:04:21.248Z,20.67
2019-03-08T12:05:21.080Z,20.65
2019-03-08T12:06:21.253Z,20.65
2019-03-08T12:07:21.264Z,20.65
2019-03-08T12:08:21.019Z,20.65
2019-03-08T12:09:21.145Z,20.66
2019-03-08T12:10:21.090Z,20.66
2019-03-08T12:11:21.093Z,20.66
2019-03-08T12:12:21.229Z,20.67
2019-03-08T12:13:20.965Z,20.67
2019-03-08T12:14:22.729Z,20.69
2019-03-08T12:15:21.069Z,20.68
2019-03-08T12:16:21.679Z,20.69
2019-03-08T12:17:21.099Z,20.69
2019-03-08T12:18:21.219Z,20.69
2019-03-08T12:19:21.001Z,20.7
2019-03-08T12:20:21.088Z,20.71
2019-03-08T12:21:21.206Z,20.71
2019-03-08T12:22:22.786Z,20.71
2019-03-08T12:23:21.076Z,20.72
2019-03-08T12:24:21.120Z,20.72
2019-03-08T12:25:21.245Z,20.73
2019-03-08T12:26:21.102Z,20.74
2019-03-08T12:27:21.219Z,20.74
2019-03-08T12:28:21.246Z,20.73
2019-03-08T12:29:21.078Z,20.74
2019-03-08T12:30:22.536Z,20.75
2019-03-08T12:31:21.226Z,20.77
2019-03-08T12:32:21.076Z,20.77
2019-03-08T12:33:21.099Z,20.77
2019-03-08T12:34:21.240Z,20.77
2019-03-08T12:35:21.038Z,20.77
2019-03-08T12:36:21.066Z,20.79
2019-03-08T12:37:21.265Z,20.77
2019-03-08T12:38:22.489Z,20.78
2019-03-08T12:39:21.086Z,20.8
2019-03-08T12:40:21.197Z,20.8
2019-03-08T12:41:21.076Z,20.78
2019-03-08T12:42:21.190Z,20.78
2019-03-08T12:43:21.201Z,20.77
2019-03-08T12:44:21.208Z,20.78
2019-03-08T12:45:21.015Z,20.77
2019-03-08T12:46:22.554Z,20.77
2019-03-08T12:47:21.225Z,20.79
2019-03-08T12:48:24.494Z,20.78
2019-03-08T12:49:21.055Z,20.77
2019-03-08T12:50:21.196Z,20.77
2019-03-08T12:51:21.157Z,20.77
2019-03-08T12:52:21.115Z,20.77
2019-03-08T12:53:21.174Z,20.77
2019-03-08T12:54:21.994Z,20.77
2019-03-08T12:55:21.228Z,20.77